Terminal Aerodrome Forecast
Issued by NWS Albany, NY

Home | Current Version | Previous Version | Text Only | Print | Product List | Glossary On
Versions: 1 2 3 4 5 6 7 8 9 10 11 12 13 14 15 16 17 18 19 20
000
FTUS41 KALY 310538
TAFGFL
TAF
KGFL 310538Z 3106/0106 VRB03KT P6SM VCSH OVC050
     FM311000 VRB03KT 5SM -SHRA BR SCT015 OVC025
      TEMPO 3111/3112 2SM -SHRA BR BKN009 OVC015
     FM311200 03003KT 4SM -SHRA BR OVC015
     FM311500 04003KT 3SM -SHRA BR SCT008 OVC015
     FM311800 04006KT 5SM -SHRA BR OVC015
     FM010000 03005KT 3SM -SHRA BR BKN008 OVC012=

USA.gov is the U.S. government's official web portal to all federal, state and local government web resources and services.